<?xml version="1.0" encoding="UTF-8" standalone="no" ?>
<gpx xmlns="http://www.topografix.com/GPX/1/1" xmlns:xsi="http://www.w3.org/2001/XMLSchema-instance" xsi:schemaLocation="http://www.topografix.com/GPX/1/1 http://www.topografix.com/GPX/1/1/gpx.xsd" version="1.1" creator="VisuGPX - https://www.visugpx.com">
  <metadata>
    <name>Talmont_PortBourgenay_8-14km</name>
    <desc><![CDATA[gnerando idor:6533347-7848784]]></desc>
  </metadata>
  <trk>
    <name><![CDATA[TalmontBourgenay_7.8km-7848784]]></name>
    <extensions>
      <line xmlns="http://www.topografix.com/GPX/gpx_style/0/2">
        <color>00FF00</color>
        <width>4</width>
      </line>
    </extensions>
    <trkseg>
      <trkpt lat="46.44433" lon="-1.6694">
        <ele>13</ele>
        <time>2023-11-14T05:07:14Z</time>
      </trkpt>
      <trkpt lat="46.44297" lon="-1.67168">
        <ele>12</ele>
        <time>2023-11-14T05:11:51Z</time>
      </trkpt>
      <trkpt lat="46.44232" lon="-1.67361">
        <ele>14</ele>
        <time>2023-11-14T05:15:09Z</time>
      </trkpt>
      <trkpt lat="46.44253" lon="-1.67481">
        <ele>13</ele>
        <time>2023-11-14T05:17:03Z</time>
      </trkpt>
      <trkpt lat="46.44084" lon="-1.67584">
        <ele>8</ele>
        <time>2023-11-14T05:21:07Z</time>
      </trkpt>
      <trkpt lat="46.44134" lon="-1.67799">
        <ele>8</ele>
        <time>2023-11-14T05:24:36Z</time>
      </trkpt>
      <trkpt lat="46.44117" lon="-1.68069">
        <ele>4</ele>
        <time>2023-11-14T05:28:45Z</time>
      </trkpt>
      <trkpt lat="46.44197" lon="-1.68331">
        <ele>7</ele>
        <time>2023-11-14T05:33:09Z</time>
      </trkpt>
      <trkpt lat="46.44279" lon="-1.68743">
        <ele>9</ele>
        <time>2023-11-14T05:39:43Z</time>
      </trkpt>
      <trkpt lat="46.44265" lon="-1.68889">
        <ele>5</ele>
        <time>2023-11-14T05:41:59Z</time>
      </trkpt>
      <trkpt lat="46.44297" lon="-1.68833">
        <ele>10</ele>
        <time>2023-11-14T05:43:06Z</time>
      </trkpt>
      <trkpt lat="46.4435" lon="-1.68949">
        <ele>12</ele>
        <time>2023-11-14T05:45:14Z</time>
      </trkpt>
      <trkpt lat="46.44338" lon="-1.6903">
        <ele>7</ele>
        <time>2023-11-14T05:46:30Z</time>
      </trkpt>
      <trkpt lat="46.44475" lon="-1.69296">
        <ele>9</ele>
        <time>2023-11-14T05:51:35Z</time>
      </trkpt>
      <trkpt lat="46.44531" lon="-1.69442">
        <ele>6</ele>
        <time>2023-11-14T05:54:09Z</time>
      </trkpt>
      <trkpt lat="46.44696" lon="-1.69567">
        <ele>6</ele>
        <time>2023-11-14T05:58:17Z</time>
      </trkpt>
      <trkpt lat="46.44764" lon="-1.69687">
        <ele>8</ele>
        <time>2023-11-14T06:00:40Z</time>
      </trkpt>
      <trkpt lat="46.44741" lon="-1.69807">
        <ele>8</ele>
        <time>2023-11-14T06:02:35Z</time>
      </trkpt>
      <trkpt lat="46.448" lon="-1.7012">
        <ele>6</ele>
        <time>2023-11-14T06:07:33Z</time>
      </trkpt>
      <trkpt lat="46.44856" lon="-1.70266">
        <ele>7</ele>
        <time>2023-11-14T06:10:07Z</time>
      </trkpt>
      <trkpt lat="46.44918" lon="-1.70489">
        <ele>5</ele>
        <time>2023-11-14T06:13:48Z</time>
      </trkpt>
      <trkpt lat="46.44968" lon="-1.70524">
        <ele>8</ele>
        <time>2023-11-14T06:15:02Z</time>
      </trkpt>
      <trkpt lat="46.45022" lon="-1.70627">
        <ele>5</ele>
        <time>2023-11-14T06:17:01Z</time>
      </trkpt>
      <trkpt lat="46.45078" lon="-1.70567">
        <ele>12</ele>
        <time>2023-11-14T06:18:34Z</time>
      </trkpt>
      <trkpt lat="46.45066" lon="-1.70485">
        <ele>15</ele>
        <time>2023-11-14T06:19:51Z</time>
      </trkpt>
      <trkpt lat="46.45249" lon="-1.70485">
        <ele>22</ele>
        <time>2023-11-14T06:23:55Z</time>
      </trkpt>
      <trkpt lat="46.45459" lon="-1.70537">
        <ele>22</ele>
        <time>2023-11-14T06:28:39Z</time>
      </trkpt>
      <trkpt lat="46.45551" lon="-1.70382">
        <ele>22</ele>
        <time>2023-11-14T06:31:47Z</time>
      </trkpt>
      <trkpt lat="46.45637" lon="-1.70361">
        <ele>23</ele>
        <time>2023-11-14T06:33:44Z</time>
      </trkpt>
      <trkpt lat="46.45424" lon="-1.69631">
        <ele>21</ele>
        <time>2023-11-14T06:45:52Z</time>
      </trkpt>
      <trkpt lat="46.45409" lon="-1.69035">
        <ele>13</ele>
        <time>2023-11-14T06:55:01Z</time>
      </trkpt>
      <trkpt lat="46.4535" lon="-1.68803">
        <ele>14</ele>
        <time>2023-11-14T06:58:48Z</time>
      </trkpt>
      <trkpt lat="46.45329" lon="-1.68623">
        <ele>19</ele>
        <time>2023-11-14T07:01:36Z</time>
      </trkpt>
      <trkpt lat="46.45229" lon="-1.68266">
        <ele>23</ele>
        <time>2023-11-14T07:07:30Z</time>
      </trkpt>
      <trkpt lat="46.45276" lon="-1.67661">
        <ele>23</ele>
        <time>2023-11-14T07:16:50Z</time>
      </trkpt>
      <trkpt lat="46.45246" lon="-1.67606">
        <ele>22</ele>
        <time>2023-11-14T07:17:55Z</time>
      </trkpt>
      <trkpt lat="46.4501" lon="-1.6764">
        <ele>24</ele>
        <time>2023-11-14T07:23:11Z</time>
      </trkpt>
      <trkpt lat="46.44708" lon="-1.67485">
        <ele>18</ele>
        <time>2023-11-14T07:30:18Z</time>
      </trkpt>
      <trkpt lat="46.44637" lon="-1.67524">
        <ele>16</ele>
        <time>2023-11-14T07:32:00Z</time>
      </trkpt>
      <trkpt lat="46.44531" lon="-1.67309">
        <ele>13</ele>
        <time>2023-11-14T07:36:03Z</time>
      </trkpt>
      <trkpt lat="46.4443" lon="-1.66966">
        <ele>14</ele>
        <time>2023-11-14T07:41:46Z</time>
      </trkpt>
    </trkseg>
  </trk>
</gpx>